首页
METAR-TAF:

METAR-TAF

机场 :

蒙蒂基亚里

布雷西亚, 意大利

纬度: 45-24-02N, 经度: 010-18-59E, 海拔: 104米

当前天气观测

该预报发布于35分钟前的21:20 UTC
风速6节,风向
温度 9°C
湿度 71%
气压 1024 hPa
能見度: 8000

METAR: LIPO 262120Z AUTO 36006KT 8000 FEW190/// 09/04 Q1024

时间: 22:55 (21:55 UTC)

预报

该预报发布于4小时和55分钟前的17:00 UTC
预报有效从26日的 18点(UTC)到 27日的 18点(UTC)
风速4节,风向多变
能见度10公里或以上
1500米以下无云,无积雨云
成为
从 26日的 20点(UTC)到 26日的 22点(UTC)
能見度: 4000
轻雾

TAF: LIPO 261700Z 2618/2718 VRB04KT CAVOK BECMG 2620/2622 4000 BR

超过4000个机场的气象观测和天气预报(METAR&TAF报告)。

可查询的气象台以黄色和红色小点在地图上表示。

将鼠标移到小点上方,可查看气象台名称。

然后点击查看天气观测和预报。

如需切换地图:点击带黑十字的绿色按钮放大地图;点击带横线的绿色按钮缩小地图;或者点击绿色箭头查看邻近地区的地图。


METAR-TAF: